Altius — YJTU4 — position and weather

sailwx.info

Track history (hours):
 
Tides and Currents Weather Stations Pressure Air Temp Water Temp Dewpoint Dewpoint Depression Visibility Wind Speed Wind Dir Waves Ship Positions

Altius

Last reported at 2018-Jul-22 11:26 UTC. Time now 2018-Jul-23 13:42 UTC.
Position N 45°33' E 036°49'.

Length 74 m; draft 2.7 m.

Type: Cargo ship. MMSI: 577249000.

Date/timePositionNaut miles runAvg speedWind from/ knotsBaromVisibWave heightAir tempDewpointWater temp
2018-Jul-22 11:26N 45°33' E 036°49'4 9.4
2018-Jul-22 10:59N 45°29' E 036°47'5 9.6
2018-Jul-22 10:30N 45°25' E 036°42'5 9.2
2018-Jul-22 10:00N 45°21' E 036°40'4 7.7
2018-Jul-22 09:30N 45°19' E 036°35'4 7.6
2018-Jul-22 09:00N 45°18' E 036°30'3 5.7
2018-Jul-22 08:30N 45°16' E 036°29'2 4.5
2018-Jul-22 08:00N 45°14' E 036°30'0 0.0
2018-Jul-22 07:22N 45°14' E 036°30'0 0.0
2018-Jul-22 06:58N 45°14' E 036°30'0 0.0
2018-Jul-22 06:22N 45°14' E 036°30'0 0.0
2018-Jul-22 05:58N 45°14' E 036°30'0 0.0
2018-Jul-22 05:28N 45°14' E 036°30'0 0.0
2018-Jul-22 04:58N 45°14' E 036°30'0 0.0
2018-Jul-22 04:22N 45°14' E 036°30'0 0.0
2018-Jul-22 03:58N 45°14' E 036°30'0 0.0
2018-Jul-22 03:22N 45°14' E 036°30'0 0.0
2018-Jul-21 22:16N 45°14' E 036°30'0 0.0
2018-Jul-21 21:52N 45°14' E 036°30'0 0.0
2018-Jul-21 20:58N 45°14' E 036°30'0 0.0
2018-Jul-21 19:52N 45°14' E 036°30'0 0.8
2018-Jul-21 19:30N 45°14' E 036°30'  
2018-Jul-14 16:33N 41°27' E 029°23'277 8.7
2018-Jul-13 08:42N 43°59' E 034°38'2 8.6
2018-Jul-13 08:25N 44°00' E 034°41'4 8.6
2018-Jul-13 07:58N 44°02' E 034°46'103 8.1
2018-Jul-12 19:08N 45°16' E 036°28'3 6.5
2018-Jul-12 18:41N 45°18' E 036°30'1 5.6
2018-Jul-12 18:30N 45°19' E 036°31'3 7.1
2018-Jul-12 18:00N 45°20' E 036°36'3 6.8
2018-Jul-12 17:30N 45°22' E 036°40'3 6.4
2018-Jul-12 17:00N 45°26' E 036°41'3 5.9
2018-Jul-12 16:30N 45°28' E 036°39'0 0.6
2018-Jul-12 15:48N 45°28' E 036°38'0 0.0
2018-Jul-12 15:18N 45°28' E 036°38'0 0.0
2018-Jul-12 14:42N 45°28' E 036°38'0 0.0
2018-Jul-12 14:27N 45°28' E 036°38'0 0.0
2018-Jul-12 13:57N 45°28' E 036°38'0 0.0
2018-Jul-12 13:21N 45°28' E 036°38'0 0.0
2018-Jul-12 13:00N 45°28' E 036°38'0 0.0
2018-Jul-12 11:29N 45°28' E 036°38'  
Track history (hours):
 
Tides and Currents Weather Stations Pressure Air Temp Water Temp Dewpoint Dewpoint Depression Visibility Wind Speed Wind Dir Waves Ship Positions

Altius

Last reported at 2018-Jul-22 11:26 UTC. Time now 2018-Jul-23 13:42 UTC.
Position N 45°33' E 036°49'.

Length 74 m; draft 2.7 m.

Type: Cargo ship. MMSI: 577249000.

Date/timePositionNaut miles runAvg speedWind from/ knotsBaromVisibWave heightAir tempDewpointWater temp
2018-Jul-22 11:26N 45°33' E 036°49'4 9.4
2018-Jul-22 10:59N 45°29' E 036°47'5 9.6
2018-Jul-22 10:30N 45°25' E 036°42'5 9.2
2018-Jul-22 10:00N 45°21' E 036°40'4 7.7
2018-Jul-22 09:30N 45°19' E 036°35'4 7.6
2018-Jul-22 09:00N 45°18' E 036°30'3 5.7
2018-Jul-22 08:30N 45°16' E 036°29'2 4.5
2018-Jul-22 08:00N 45°14' E 036°30'0 0.0
2018-Jul-22 07:22N 45°14' E 036°30'0 0.0
2018-Jul-22 06:58N 45°14' E 036°30'0 0.0
2018-Jul-22 06:22N 45°14' E 036°30'0 0.0
2018-Jul-22 05:58N 45°14' E 036°30'0 0.0
2018-Jul-22 05:28N 45°14' E 036°30'0 0.0
2018-Jul-22 04:58N 45°14' E 036°30'0 0.0
2018-Jul-22 04:22N 45°14' E 036°30'0 0.0
2018-Jul-22 03:58N 45°14' E 036°30'0 0.0
2018-Jul-22 03:22N 45°14' E 036°30'0 0.0
2018-Jul-21 22:16N 45°14' E 036°30'0 0.0
2018-Jul-21 21:52N 45°14' E 036°30'0 0.0
2018-Jul-21 20:58N 45°14' E 036°30'0 0.0
2018-Jul-21 19:52N 45°14' E 036°30'0 0.8
2018-Jul-21 19:30N 45°14' E 036°30'  
2018-Jul-14 16:33N 41°27' E 029°23'277 8.7
2018-Jul-13 08:42N 43°59' E 034°38'2 8.6
2018-Jul-13 08:25N 44°00' E 034°41'4 8.6
2018-Jul-13 07:58N 44°02' E 034°46'103 8.1
2018-Jul-12 19:08N 45°16' E 036°28'3 6.5
2018-Jul-12 18:41N 45°18' E 036°30'1 5.6
2018-Jul-12 18:30N 45°19' E 036°31'3 7.1
2018-Jul-12 18:00N 45°20' E 036°36'3 6.8
2018-Jul-12 17:30N 45°22' E 036°40'3 6.4
2018-Jul-12 17:00N 45°26' E 036°41'3 5.9
2018-Jul-12 16:30N 45°28' E 036°39'0 0.6
2018-Jul-12 15:48N 45°28' E 036°38'0 0.0
2018-Jul-12 15:18N 45°28' E 036°38'0 0.0
2018-Jul-12 14:42N 45°28' E 036°38'0 0.0
2018-Jul-12 14:27N 45°28' E 036°38'0 0.0
2018-Jul-12 13:57N 45°28' E 036°38'0 0.0
2018-Jul-12 13:21N 45°28' E 036°38'0 0.0
2018-Jul-12 13:00N 45°28' E 036°38'0 0.0
2018-Jul-12 11:29N 45°28' E 036°38'  

Dump ship's entire track history